Tiempo atmosférico en la estación meteorológica de Castejon De Valdejasa, Zaragoza (442 m.)



Fecha
DESCASC
Temp. máxima en grados centígrados (hora)
DESCASC
Temp. mínima en grados centígrados (hora)
DESCASC
Temp. media en grados centígrados
DESCASC
Racha de viento máxima en m/sg (hora)
DESCASC
Velocidad máxima media en intervalos de 10 minutos(hora)
DESCASC
Precipitaciones diarias en mm
DESCASC
Precipitaciones de 00:00 a 06:00 en mm
DESCASC
Precipitaciones de 06:00 a 12:00 en mm
DESCASC
Precipitaciones de 12:00 a 18:00 en mm
DESCASC
Precipitaciones de 18:00 a 24:00 en mm
DESCASC
15-08-2019 28.2 (17:40) 16.7 (05:40) 22.5 12.78 (12:50) 7.78 (13:40) 0 0 0 0 0
14-08-2019 30.2 (18:30) 11.6 (00:00) 20.9 12.22 (14:50) 8.06 (14:50) 0 0 0 0 0
13-08-2019 24.1 (17:40) 11.4 (00:00) 17.8 16.11 (14:50) 8.89 (14:30) 0 0 0 0 0
12-08-2019 23.1 (16:20) 13.6 (00:00) 18.4 17.22 (16:30) 10.83 (13:40) 0 0 0 0 0
11-08-2019 28.7 (17:10) 16.7 (00:00) 22.7 13.06 (18:20) 7.78 (18:30) 0 0 0 0 0
10-08-2019 28.9 (16:40) 16.5 (00:00) 22.7 9.72 (14:00) 6.11 (12:20) 0 0 0 0 0
09-08-2019 36.6 (17:40) 21.6 (00:00) 29.1 20.56 (19:40) 8.33 (19:40) 0 0 0 0 0
08-08-2019 35.1 (19:00) 18.7 (00:00) 26.9 9.17 (21:50) 6.11 (21:50) 0 0 0 0 0
07-08-2019 29.6 (15:50) 18.6 (00:00) 24.1 9.44 (02:50) 6.39 (02:40) 0 0 0 0 0
06-08-2019 35 (17:50) 17.5 (00:00) 26.3 7.5 (12:30) 4.72 (12:30) 0 0 0 0 0
05-08-2019 35.1 (17:20) 16.7 (00:00) 25.9 9.44 (20:10) 6.94 (21:10) 0 0 0 0 0
04-08-2019 36.2 (17:50) 19 (00:00) 27.6 8.61 (18:40) 5.83 (20:10) 0 0 0 0 0
03-08-2019 35.1 (17:30) 16.5 (00:00) 25.8 8.89 (20:10) 6.11 (21:20) 0 0 0 0 0
02-08-2019 32 (17:50) 15.7 (00:00) 23.8 9.44 (18:10) 5.83 (11:40) 0 0 0 0 0
01-08-2019 30.8 (16:40) 18.4 (00:00) 24.6 10.28 (05:20) 7.5 (05:10) 0.4 0 0 0 0.4
31-07-2019 29.8 (18:50) 11.4 (00:00) 20.6 10 (16:40) 6.39 (20:50) 0 0 0 0 0
30-07-2019 24.5 (16:40) 13.9 (00:00) 19.2 13.61 (17:00) 9.17 (10:40) 0 0 0 0 0
29-07-2019 -- (--) -- (--) -- -- (--) -- (--) -- -- -- 0 0
28-07-2019 -- (--) -- (--) -- -- (--) -- (--) -- 0 -- -- --
27-07-2019 -- (--) -- (--) -- -- (--) -- (--) -- -- -- 0 0
26-07-2019 30.2 (17:30) 17.3 (00:00) 23.8 12.22 (12:30) 8.89 (01:40) 0.2 0 0 0.2 0
25-07-2019 37.2 (16:20) 22.8 (00:00) 30 12.5 (16:40) 8.61 (01:50) 0 0 0 0 0
24-07-2019 38 (17:10) 23.5 (00:00) 30.8 11.39 (18:20) 7.78 (21:10) 0 0 0 0 0
23-07-2019 38.5 (16:40) 23.7 (00:00) 31.1 12.5 (20:00) 8.61 (20:20) 0 0 0 0 0
22-07-2019 37.5 (16:50) 21 (00:00) 29.3 13.89 (20:00) 9.72 (20:00) 0 0 0 0 0
21-07-2019 34.7 (18:10) 17.2 (00:00) 26 11.39 (21:10) 8.61 (20:10) 0 0 0 0 0
20-07-2019 34.6 (17:10) 19.9 (07:10) 27.2 15 (00:50) 11.39 (01:00) 0 0 0 0 0
19-07-2019 33 (18:00) 14.1 (00:00) 23.6 12.22 (19:40) 9.17 (21:30) 0 0 0 0 0
18-07-2019 29.3 (18:30) 15.1 (00:00) 22.2 12.22 (14:20) 8.33 (14:20) 0 0 0 0 0

Gráficas

Temp. máximas Temp. mínimas Temp. medias Precipitaciones Rachas de viento máximas Velocidades máximas media en intervalos de 10 minutos

Datos horarios

Fecha y hora oficial Temperatura (ºC) Velocidad del viento (km/h) Dirección del viento Racha (km/h) Dirección de racha Precipitación (mm) Presión (hPa) Tendencia (hPa) Humedad (%)
2019-08-16 23:00:00 25 10 Nordeste 16 Este 0 -- -- 40
2019-08-16 22:00:00 27.4 5 Este 10 Este 0 -- -- 35
2019-08-16 21:00:00 29 7 Oeste 16 Oeste 0 -- -- 35
2019-08-16 20:00:00 31.6 11 Oeste 18 Este 0 -- -- 30
2019-08-16 19:00:00 33 9 Sudeste 19 Este 0 -- -- 26
2019-08-16 18:00:00 33.5 6 Sudeste 19 Sudeste 0 -- -- 25
2019-08-16 17:00:00 33.2 8 Sudeste 19 Sudoeste 0 -- -- 25
2019-08-16 16:00:00 31.5 9 Oeste 19 Oeste 0 -- -- 28
2019-08-16 15:00:00 30.1 8 Oeste 20 Sudoeste 0 -- -- 32
2019-08-16 14:00:00 28.6 10 Sudoeste 19 Oeste 0 -- -- 34
2019-08-16 13:00:00 26.7 9 Oeste -- -- -- -- -- 37
2019-08-16 12:00:00 24 11 Oeste 15 Sudoeste 0 -- -- 43
2019-08-16 11:00:00 19.8 8 Oeste 15 Oeste 0 -- -- 54
2019-08-16 10:00:00 17.1 10 Oeste 14 Oeste 0 -- -- 61
2019-08-16 09:00:00 14.9 4 Este 8 Nordeste 0 -- -- 72
2019-08-16 08:00:00 11.8 4 Nordeste 10 Este 0 -- -- 81
2019-08-16 07:00:00 11.6 6 Este 11 Este 0 -- -- 82
2019-08-16 06:00:00 12.9 2 Este 5 Sudeste 0 -- -- 77
2019-08-16 05:00:00 13.8 0 Calma 18 Oeste 0 -- -- 74
2019-08-16 04:00:00 13.8 8 Oeste 16 Oeste 0 -- -- 75
2019-08-16 03:00:00 14.2 13 Oeste 16 Oeste 0 -- -- 72
2019-08-16 02:00:00 14.8 12 Oeste 18 Oeste 0 -- -- 65
2019-08-16 01:00:00 16.2 14 Oeste 31 Oeste 0 -- -- 60
2019-08-16 00:00:00 17.9 13 Oeste 36 Noroeste 0 -- -- 54
2019-08-15 23:00:00 19.1 22 Noroeste 37 Oeste 0 -- -- 51
2019-08-15 22:00:00 -- 18 Oeste 30 Oeste 0 -- -- --
2019-08-15 21:00:00 22.6 19 Oeste 36 Oeste 0 -- -- 42
2019-08-15 20:00:00 24.9 24 Oeste 40 Oeste 0 -- -- 37
2019-08-15 19:00:00 26.9 20 Noroeste 39 Oeste 0 -- -- 35
2019-08-15 18:00:00 27.9 20 Noroeste 39 Noroeste 0 -- -- 33
2019-08-15 17:00:00 27.7 21 Noroeste 42 Oeste 0 -- -- 33
2019-08-15 16:00:00 27.2 18 Noroeste 41 Oeste 0 -- -- 34
2019-08-15 15:00:00 26.3 27 Oeste 45 Oeste 0 -- -- 35
2019-08-15 14:00:00 25.7 23 Oeste 46 Oeste 0 -- -- 46
2019-08-15 13:00:00 24.9 24 Oeste 46 Oeste 0 -- -- 51
2019-08-15 12:00:00 24 23 Oeste 37 Oeste 0 -- -- 55
2019-08-15 11:00:00 22.1 24 Oeste 32 Oeste 0 -- -- 63
2019-08-15 10:00:00 19.9 18 Oeste 29 Noroeste 0 -- -- 71
2019-08-15 09:00:00 18.3 15 Oeste 23 Oeste 0 -- -- 80
2019-08-15 08:00:00 16.8 12 Oeste 23 Oeste 0 -- -- 86
2019-08-15 07:00:00 17.6 16 Oeste 25 Oeste 0 -- -- 82
2019-08-15 06:00:00 17 12 Oeste 18 Oeste 0 -- -- 84
2019-08-15 05:00:00 17 9 Oeste 22 Noroeste 0 -- -- 82
2019-08-15 04:00:00 17.6 13 Oeste 29 Oeste 0 -- -- 77
2019-08-15 03:00:00 18.1 14 Oeste 29 Oeste 0 -- -- 75
2019-08-15 02:00:00 19.2 15 Oeste 24 Noroeste 0 -- -- 71
2019-08-15 01:00:00 19.4 16 Oeste 22 Oeste 0 -- -- 68
2019-08-15 00:00:00 20.4 14 Oeste 19 Oeste 0 -- -- 60
2019-08-14 23:00:00 21.6 7 Oeste 17 Oeste 0 -- -- 52
2019-08-14 22:00:00 24.1 8 Oeste 18 Noroeste 0 -- -- 46
2019-08-14 21:00:00 26 10 Noroeste 26 Noroeste 0 -- -- 41
2019-08-14 20:00:00 28.7 15 Noroeste 32 Noroeste 0 -- -- 34
2019-08-14 19:00:00 29.8 15 Noroeste 33 Noroeste 0 -- -- 30
2019-08-14 18:00:00 30 23 Oeste 42 Oeste 0 -- -- 29
2019-08-14 17:00:00 29.5 21 Oeste 40 Oeste 0 -- -- 29
2019-08-14 16:00:00 29 18 Oeste 42 Noroeste 0 -- -- 28
2019-08-14 15:00:00 27.5 24 Oeste 44 Oeste 0 -- -- 27
2019-08-14 14:00:00 26 22 Oeste 35 Oeste 0 -- -- 30
2019-08-14 13:00:00 25.5 17 Oeste 30 Oeste 0 -- -- 28
2019-08-14 12:00:00 23.6 17 Oeste 24 Sudoeste 0 -- -- 33
2019-08-14 11:00:00 21.4 15 Oeste 22 Sudoeste 0 -- -- 38
2019-08-14 10:00:00 -- 11 Oeste 15 Oeste 0 -- -- --
2019-08-14 09:00:00 15 7 Oeste 10 Oeste 0 -- -- 61
2019-08-14 08:00:00 13 3 Este 6 Este 0 -- -- 67
2019-08-14 07:00:00 12.9 0 Calma 8 Oeste 0 -- -- 69
2019-08-14 06:00:00 12.1 2 Noroeste 5 Este 0 -- -- 78
2019-08-14 05:00:00 11.8 0 Calma 8 Oeste 0 -- -- 80
2019-08-14 04:00:00 12.8 5 Oeste 13 Oeste 0 -- -- 78
2019-08-14 03:00:00 13.2 11 Oeste 15 Oeste 0 -- -- 76
2019-08-14 02:00:00 13.7 11 Oeste 14 Oeste 0 -- -- 72
2019-08-14 01:00:00 14.8 6 Oeste 30 Oeste 0 -- -- 68
2019-08-14 00:00:00 15.2 8 Oeste 31 Oeste 0 -- -- 66
2019-08-13 23:00:00 17.7 20 Oeste 32 Oeste 0 -- -- 55
2019-08-13 22:00:00 18.7 18 Noroeste 33 Noroeste 0 -- -- 51
2019-08-13 21:00:00 20.3 18 Oeste 32 Oeste 0 -- -- 46
2019-08-13 20:00:00 22.5 21 Oeste 36 Oeste 0 -- -- 39
2019-08-13 19:00:00 23.6 23 Oeste 40 Oeste 0 -- -- 37
2019-08-13 18:00:00 23.8 25 Noroeste 41 Noroeste 0 -- -- 38
2019-08-13 17:00:00 23.5 24 Oeste 43 Oeste 0 -- -- 39
2019-08-13 16:00:00 23 24 Oeste 45 Oeste 0 -- -- 38
2019-08-13 15:00:00 22.6 28 Oeste 58 Oeste 0 -- -- 41
2019-08-13 14:00:00 21.6 22 Oeste 39 Oeste 0 -- -- 42
2019-08-13 13:00:00 20.1 22 Oeste 39 Oeste 0 -- -- 46
2019-08-13 12:00:00 18.3 20 Oeste 33 Oeste 0 -- -- 54
2019-08-13 11:00:00 16.2 19 Oeste 30 Noroeste 0 -- -- 62
2019-08-13 10:00:00 14.5 19 Oeste 32 Oeste 0 -- -- 70
2019-08-13 09:00:00 13.5 19 Oeste 30 Oeste 0 -- -- 75
2019-08-13 08:00:00 11.9 10 Oeste 13 Oeste 0 -- -- 81
2019-08-13 07:00:00 11.7 11 Oeste 29 Oeste 0 -- -- 79
2019-08-13 06:00:00 13.2 20 Oeste 31 Oeste 0 -- -- 75
2019-08-13 05:00:00 13.2 22 Oeste 39 Oeste 0 -- -- 74
2019-08-13 04:00:00 13.7 24 Oeste 43 Oeste 0 -- -- 74
2019-08-13 03:00:00 13.4 28 Oeste 40 Oeste 0 -- -- 77
2019-08-13 02:00:00 13.2 19 Oeste 39 Oeste 0 -- -- 74
2019-08-13 01:00:00 14.1 22 Oeste 39 Noroeste 0 -- -- 70
2019-08-13 00:00:00 14.4 21 Oeste 50 Oeste 0 -- -- 68
2019-08-12 23:00:00 15.1 26 Oeste 50 Oeste 0 -- -- 66
2019-08-12 22:00:00 16.4 28 Noroeste 52 Noroeste 0 -- -- 62
2019-08-12 21:00:00 17.4 27 Noroeste 51 Noroeste 0 -- -- 56
2019-08-12 20:00:00 19.3 26 Noroeste 57 Noroeste 0 -- -- 49
2019-08-12 19:00:00 21.1 26 Oeste 52 Noroeste 0 -- -- 42
2019-08-12 18:00:00 22.1 32 Noroeste 58 Oeste 0 -- -- 42
2019-08-12 17:00:00 22.7 28 Oeste 62 Oeste 0 -- -- 40
2019-08-12 16:00:00 22.9 32 Oeste 54 Oeste 0 -- -- 40
2019-08-12 15:00:00 22.6 28 Oeste 59 Oeste 0 -- -- 42
2019-08-12 14:00:00 21.7 34 Oeste 59 Oeste 0 -- -- 44
2019-08-12 13:00:00 20.5 34 Oeste 51 Oeste 0 -- -- 50
2019-08-12 12:00:00 19.8 28 Oeste 48 Noroeste 0 -- -- 53
2019-08-12 11:00:00 17.9 30 Oeste 52 Oeste 0 -- -- 60
2019-08-12 10:00:00 15.9 30 Oeste 52 Oeste 0 -- -- 67
2019-08-12 09:00:00 14.4 34 Oeste 55 Oeste 0 -- -- 74
2019-08-12 08:00:00 13.7 24 Oeste 47 Oeste 0 -- -- 80
2019-08-12 07:00:00 13.8 18 Oeste 37 Oeste 0 -- -- 81
2019-08-12 06:00:00 14 24 Oeste 40 Oeste 0 -- -- 81
2019-08-12 05:00:00 14.2 20 Oeste 37 Oeste 0 -- -- 80
2019-08-12 04:00:00 14.4 19 Oeste 33 Oeste 0 -- -- 81
2019-08-12 03:00:00 14.9 21 Oeste 31 Oeste 0 -- -- 80
2019-08-12 02:00:00 15.8 20 Oeste 31 Oeste 0 -- -- 77
2019-08-12 01:00:00 16.9 16 Oeste 32 Oeste 0 -- -- 72
2019-08-12 00:00:00 18.4 17 Oeste 30 Oeste 0 -- -- 63
2019-08-11 23:00:00 19.5 17 Noroeste 28 Oeste 0 -- -- 58
2019-08-11 22:00:00 20.8 12 Noroeste 32 Noroeste 0 -- -- 53
2019-08-11 21:00:00 22.6 21 Noroeste 37 Oeste 0 -- -- 49
2019-08-11 20:00:00 25 22 Noroeste 43 Noroeste 0 -- -- 44
2019-08-11 19:00:00 26.5 23 Noroeste 47 Oeste 0 -- -- 39
2019-08-11 18:00:00 27.9 26 Oeste 41 Oeste 0 -- -- 37
2019-08-11 17:00:00 28.3 21 Oeste 37 Oeste 0 -- -- 35
2019-08-11 16:00:00 27.5 18 Oeste 36 Oeste 0 -- -- 39
2019-08-11 15:00:00 27.2 17 Oeste 36 Oeste 0 -- -- 41
2019-08-11 14:00:00 26 14 Oeste 31 Oeste 0 -- -- 45
2019-08-11 13:00:00 23.9 20 Oeste 33 Oeste 0 -- -- 54
2019-08-11 12:00:00 21.9 23 Oeste 35 Oeste 0 -- -- 63
2019-08-11 11:00:00 19.3 18 Oeste 27 Oeste 0 -- -- 71
2019-08-11 10:00:00 19 6 Nordeste 27 Oeste 0 -- -- 70
2019-08-11 09:00:00 18.1 12 Oeste 41 Oeste 0 -- -- 76
2019-08-11 08:00:00 17.3 19 Oeste 26 Oeste 0 -- -- 80
2019-08-11 07:00:00 17.1 5 Oeste 9 Oeste 0 -- -- 81
2019-08-11 06:00:00 16.8 3 Noroeste 8 Oeste 0 -- -- 82
2019-08-11 05:00:00 17.7 0 Calma 5 Oeste 0 -- -- 78
2019-08-11 04:00:00 18.2 7 Oeste 14 Oeste 0 -- -- 77
2019-08-11 03:00:00 18.3 11 Oeste 16 Oeste 0 -- -- 76
2019-08-11 02:00:00 18.6 9 Oeste 21 Oeste 0 -- -- 75
2019-08-11 01:00:00 20.1 12 Oeste 18 Oeste 0 -- -- 70
2019-08-11 00:00:00 21.3 4 Oeste 7 Oeste 0 -- -- 62
2019-08-10 23:00:00 22.8 3 Sudeste 5 Este 0 -- -- 48
2019-08-10 22:00:00 25.3 3 Este 9 Oeste 0 -- -- 42
2019-08-10 21:00:00 26.9 5 Noroeste 9 Oeste 0 -- -- 39
2019-08-10 20:00:00 27.9 4 Sudoeste 15 Oeste 0 -- -- 36
2019-08-10 19:00:00 27.8 9 Noroeste 19 Oeste 0 -- -- 37
2019-08-10 18:00:00 27.7 13 Noroeste 21 Noroeste 0 -- -- 38
2019-08-10 17:00:00 28.4 10 Noroeste 27 Nordeste 0 -- -- 38
2019-08-10 16:00:00 27.8 15 Noroeste 26 Oeste 0 -- -- 39
2019-08-10 15:00:00 27.7 18 Oeste 31 Oeste 0 -- -- 38
2019-08-10 14:00:00 26.7 18 Oeste 35 Oeste 0 -- -- 40
2019-08-10 13:00:00 25.5 14 Oeste 28 Oeste 0 -- -- 46
2019-08-10 12:00:00 23.6 21 Oeste 29 Oeste 0 -- -- 52
2019-08-10 11:00:00 21.9 19 Oeste 27 Oeste 0 -- -- 62
2019-08-10 10:00:00 20.1 14 Oeste 21 Noroeste 0 -- -- 71
2019-08-10 09:00:00 18.5 13 Oeste 17 Oeste 0 -- -- 76
2019-08-10 08:00:00 16.6 2 Este 10 Oeste 0 -- -- 79
2019-08-10 07:00:00 16.8 9 Oeste 15 Oeste 0 -- -- 80
2019-08-10 06:00:00 17.6 13 Oeste 19 Oeste 0 -- -- 75
2019-08-10 05:00:00 18.1 8 Oeste 13 Noroeste 0 -- -- 69
2019-08-10 04:00:00 19.1 10 Oeste 17 Oeste 0 -- -- 64
2019-08-10 03:00:00 19.2 8 Oeste 13 Oeste 0 -- -- 71
2019-08-10 02:00:00 20.8 4 Noroeste 20 Noroeste 0 -- -- 61
2019-08-10 01:00:00 22.5 11 Noroeste 19 Noroeste 0 -- -- 54
2019-08-10 00:00:00 21.6 3 Oeste 33 Noroeste 0 -- -- 62
2019-08-09 23:00:00 22.4 20 Noroeste 50 Oeste 0 -- -- 59
2019-08-09 22:00:00 25.2 23 Noroeste 39 Noroeste 0 -- -- 61
2019-08-09 21:00:00 25.2 15 Noroeste 30 Noroeste 0 -- -- 64
2019-08-09 20:00:00 28.3 17 Noroeste 74 Oeste 0 -- -- 48
2019-08-09 19:00:00 34.4 2 Oeste 21 Oeste 0 -- -- 30
2019-08-09 18:00:00 35.9 8 Oeste 25 Oeste 0 -- -- 27
2019-08-09 17:00:00 35.6 14 Oeste 25 Oeste 0 -- -- 28
2019-08-09 16:00:00 35 14 Noroeste 31 Oeste 0 -- -- 28
2019-08-09 15:00:00 34.3 22 Oeste 35 Oeste 0 -- -- 28
2019-08-09 14:00:00 34.2 23 Sudoeste 36 Sudoeste 0 -- -- 29
2019-08-09 13:00:00 33.1 13 Sudoeste 30 Oeste 0 -- -- 30
2019-08-09 12:00:00 31.5 13 Oeste 35 Sudoeste 0 -- -- 34
2019-08-09 11:00:00 30.3 16 Sudoeste 28 Sur 0 -- -- 36
2019-08-09 10:00:00 28.8 12 Sudoeste 20 Sudoeste 0 -- -- 39
2019-08-09 09:00:00 26.9 11 Este 18 Este 0 -- -- 46
2019-08-09 08:00:00 23.3 14 Este 18 Nordeste 0 -- -- 57
2019-08-09 07:00:00 23 13 Nordeste 19 Nordeste 0 -- -- 59
2019-08-09 06:00:00 22.9 15 Este 22 Nordeste 0 -- -- 61
2019-08-09 05:00:00 23.4 14 Este 21 Este 0 -- -- 59
2019-08-09 04:00:00 24.8 13 Este 21 Este 0 -- -- 55
2019-08-09 03:00:00 26.6 15 Este 22 Este 0 -- -- 49
2019-08-09 02:00:00 27 11 Este 18 Nordeste 0 -- -- 48
2019-08-09 01:00:00 27.8 8 Este 27 Este 0 -- -- 45
2019-08-09 00:00:00 28.8 18 Este 26 Sudeste 0 -- -- 41
2019-08-08 23:00:00 29.2 18 Sudeste 30 Este 0 -- -- 40
2019-08-08 22:00:00 30 20 Este 33 Este 0 -- -- 38
2019-08-08 21:00:00 32.1 18 Este 32 Este 0 -- -- 34
2019-08-08 20:00:00 35 4 Sur 20 Oeste 0 -- -- 29
2019-08-08 19:00:00 35.1 9 Sudeste 19 Sudeste 0 -- -- 29
2019-08-08 18:00:00 34.3 10 Oeste 21 Oeste 0 -- -- 30
2019-08-08 17:00:00 34.2 13 Oeste 28 Oeste 0 -- -- 31
2019-08-08 16:00:00 33 12 Oeste 25 Oeste 0 -- -- 32
2019-08-08 15:00:00 32 14 Oeste 25 Oeste 0 -- -- 34
2019-08-08 14:00:00 31 17 Sudoeste 27 Sudoeste 0 -- -- 35
2019-08-08 13:00:00 30.6 6 Sudeste 15 Oeste 0 -- -- 37
2019-08-08 12:00:00 27.8 8 Oeste 21 Oeste 0 -- -- 42
2019-08-08 11:00:00 26.8 11 Oeste 21 Oeste 0 -- -- 44
2019-08-08 10:00:00 25.2 12 Oeste 20 Oeste 0 -- -- 47
2019-08-08 09:00:00 22.9 2 Nordeste 9 Este 0 -- -- 57
2019-08-08 08:00:00 18.9 7 Este 10 Nordeste 0 -- -- 67
2019-08-08 07:00:00 19.1 6 Nordeste 10 Este 0 -- -- 67
2019-08-08 06:00:00 19.5 7 Este 9 Este 0 -- -- 65
2019-08-08 05:00:00 20.2 5 Noroeste 10 Oeste 0 -- -- 63
2019-08-08 04:00:00 21.6 3 Oeste 14 Noroeste 0 -- -- 58
2019-08-08 03:00:00 21.8 9 Oeste 13 Oeste 0 -- -- 55
2019-08-08 02:00:00 23.3 11 Oeste 16 Oeste 0 -- -- 49
2019-08-08 01:00:00 24.3 8 Oeste 15 Oeste 0 -- -- 44
2019-08-08 00:00:00 24.8 8 Oeste 12 Oeste 0 -- -- 43
2019-08-07 23:00:00 25.7 6 Oeste 12 Oeste 0 -- -- 41
2019-08-07 22:00:00 25.8 4 Sudeste 12 Sudeste 0 -- -- 45
2019-08-07 21:00:00 27.3 7 Oeste 19 Oeste 0 -- -- 42
2019-08-07 20:00:00 28.1 16 Oeste 25 Sudoeste 0 -- -- 40
2019-08-07 19:00:00 28.4 13 Oeste 25 Oeste 0 -- -- 41
2019-08-07 18:00:00 27.9 16 Sudoeste 23 Sudoeste 0 -- -- 42
2019-08-07 17:00:00 28.4 11 Oeste 22 Oeste 0 -- -- 44
2019-08-07 16:00:00 29.3 14 Sudoeste 24 Oeste 0 -- -- 42
2019-08-07 15:00:00 28.8 16 Oeste 26 Sudoeste 0 -- -- 42
2019-08-07 14:00:00 29.5 17 Oeste 29 Oeste 0 -- -- 45
2019-08-07 13:00:00 27.5 16 Oeste 28 Oeste 0 -- -- 55
2019-08-07 12:00:00 26.1 15 Oeste 25 Sudoeste 0 -- -- 60
2019-08-07 11:00:00 23.9 14 Oeste 20 Oeste 0 -- -- 62
2019-08-07 10:00:00 21.4 14 Oeste 21 Sudoeste 0 -- -- 68
2019-08-07 09:00:00 20 13 Oeste 21 Oeste 0 -- -- 72
2019-08-07 08:00:00 18.8 3 Noroeste 16 Oeste 0 -- -- 77
2019-08-07 07:00:00 18.7 7 Oeste 15 Oeste 0 -- -- 82
2019-08-07 06:00:00 18.7 8 Oeste 18 Oeste 0 -- -- 83
2019-08-07 05:00:00 18.8 15 Oeste 27 Oeste 0 -- -- 83
2019-08-07 04:00:00 19 16 Oeste 31 Oeste 0 -- -- 82
2019-08-07 03:00:00 19.6 19 Oeste 34 Oeste 0 -- -- 80
2019-08-07 02:00:00 21 12 Oeste 28 Oeste 0 -- -- 76
2019-08-07 01:00:00 23 15 Oeste 26 Oeste 0 -- -- 69
2019-08-07 00:00:00 25.9 6 Sudoeste 20 Oeste 0 -- -- 46
2019-08-06 23:00:00 27.7 10 Nordeste 13 Nordeste 0 -- -- 40
2019-08-06 22:00:00 28.6 8 Nordeste 11 Este 0 -- -- 35
2019-08-06 21:00:00 31 6 Este 19 Este 0 -- -- 32
2019-08-06 20:00:00 32.8 14 Este 23 Este 0 -- -- 30
2019-08-06 19:00:00 32.9 5 Nordeste 24 Este 0 -- -- 31
2019-08-06 18:00:00 34.6 8 Noroeste 18 Sudeste 0 -- -- 27
2019-08-06 17:00:00 34.5 8 Sudeste 27 Sudeste 0 -- -- 32
2019-08-06 16:00:00 32.5 4 Oeste 18 Oeste 0 -- -- 38
2019-08-06 15:00:00 32.3 9 Oeste 18 Oeste 0 -- -- 39
2019-08-06 14:00:00 31.5 5 Sudoeste 22 Noroeste 0 -- -- 42
2019-08-06 13:00:00 30.3 5 Sur 27 Este 0 -- -- 46
2019-08-06 12:00:00 29.1 12 Este 21 Este 0 -- -- 49
2019-08-06 11:00:00 26 8 Oeste 17 Sudoeste 0 -- -- 54
2019-08-06 10:00:00 21.8 3 Oeste 17 Oeste 0 -- -- 67
2019-08-06 09:00:00 20 12 Oeste 15 Oeste 0 -- -- 70
2019-08-06 08:00:00 18.3 9 Nordeste 14 Nordeste 0 -- -- 76
2019-08-06 07:00:00 18.1 6 Nordeste 11 Nordeste 0 -- -- 75
2019-08-06 06:00:00 18.4 3 Nordeste 6 Nordeste 0 -- -- 76
2019-08-06 05:00:00 19.1 8 Nordeste 10 Nordeste 0 -- -- 76
2019-08-06 04:00:00 20 10 Oeste 15 Oeste 0 -- -- 76
2019-08-06 03:00:00 22.2 0 Calma 10 Nordeste 0 -- -- 60
2019-08-06 02:00:00 22.2 7 Este 11 Oeste 0 -- -- 67
2019-08-06 01:00:00 23.6 7 Oeste 20 Oeste 0 -- -- 65
2019-08-06 00:00:00 26.3 5 Nordeste 17 Este 0 -- -- 51
2019-08-05 23:00:00 28.1 13 Este 18 Este 0 -- -- 47
2019-08-05 22:00:00 29.8 15 Este 33 Este 0 -- -- 42
2019-08-05 21:00:00 31.6 23 Este 34 Este 0 -- -- 35
2019-08-05 20:00:00 33.2 21 Este 33 Este 0 -- -- 36
2019-08-05 19:00:00 35 8 Sur 29 Este 0 -- -- 28
2019-08-05 18:00:00 35.1 15 Este 30 Este 0 -- -- 28
2019-08-05 17:00:00 34.9 12 Este 27 Este 0 -- -- 30
2019-08-05 16:00:00 34.1 9 Este 17 Sudeste -- -- -- 34
2019-08-05 15:00:00 32.8 9 Sudoeste 19 Sudoeste 0 -- -- 39
2019-08-05 14:00:00 31.1 8 Sudoeste 21 Oeste 0 -- -- 43
2019-08-05 13:00:00 29.4 6 Sudoeste 17 Oeste 0 -- -- 47
2019-08-05 12:00:00 25.5 12 Oeste 19 Oeste 0 -- -- 57
2019-08-05 11:00:00 -- 9 Oeste 16 Sudoeste 0 -- -- --
2019-08-05 10:00:00 20.8 8 Oeste 13 Sudoeste 0 -- -- 72
2019-08-05 09:00:00 19.2 2 Sur 6 Este 0 -- -- 77
2019-08-05 08:00:00 16.9 3 Este 5 Nordeste 0 -- -- 84
2019-08-05 07:00:00 17.1 0 Calma 6 Este 0 -- -- 84
2019-08-05 06:00:00 17.6 4 Este 5 Este 0 -- -- 80
2019-08-05 05:00:00 18.4 2 Norte 12 Oeste 0 -- -- 80
2019-08-05 04:00:00 19.1 6 Oeste 15 Oeste 0 -- -- 77
2019-08-05 03:00:00 20.3 6 Noroeste 11 Oeste 0 -- -- 72
2019-08-05 02:00:00 20.9 3 Oeste 12 Oeste 0 -- -- 70
2019-08-05 01:00:00 23.1 5 Sudoeste 17 Oeste 0 -- -- 62
2019-08-05 00:00:00 26.4 4 Noroeste 12 Oeste 0 -- -- 54
2019-08-04 23:00:00 28.9 3 Sudoeste 10 Sudeste 0 -- -- 46
2019-08-04 22:00:00 30.5 7 Este 20 Este 0 -- -- 43
2019-08-04 21:00:00 32.2 18 Este 31 Este 0 -- -- 38
2019-08-04 20:00:00 34.1 17 Este 28 Este 0 -- -- 31
2019-08-04 19:00:00 35.1 10 Nordeste 31 Este 0 -- -- 26
2019-08-04 18:00:00 36.1 8 Oeste 18 Este 0 -- -- 26
2019-08-04 17:00:00 36 8 Sudoeste 19 Sudoeste 0 -- -- 24
2019-08-04 16:00:00 35 8 Oeste 21 Oeste 0 -- -- 29
2019-08-04 15:00:00 33.4 6 Oeste 17 Oeste 0 -- -- 31
2019-08-04 14:00:00 31.2 10 Oeste 22 Oeste 0 -- -- 41
2019-08-04 13:00:00 30.1 12 Oeste 20 Sudoeste 0 -- -- 43
2019-08-04 12:00:00 30 11 Este 21 Este 0 -- -- 40
2019-08-04 11:00:00 28 13 Este 20 Este 0 -- -- 44
2019-08-04 10:00:00 25.7 3 Este 14 Este 0 -- -- 52
2019-08-04 09:00:00 23.2 8 Este 11 Este 0 -- -- 58
2019-08-04 08:00:00 19.9 0 Calma 14 Nordeste 0 -- -- 67
2019-08-04 07:00:00 19.1 7 Este 14 Nordeste 0 -- -- 69
2019-08-04 06:00:00 20 7 Este 9 Este 0 -- -- 68
2019-08-04 05:00:00 21.7 3 Este 18 Nordeste 0 -- -- 62
2019-08-04 04:00:00 21.5 13 Este 24 Este 0 -- -- 66
2019-08-04 03:00:00 22.7 13 Este 22 Este 0 -- -- 64
2019-08-04 02:00:00 23.9 15 Este 27 Este 0 -- -- 63
2019-08-04 01:00:00 25.4 20 Este 28 Este 0 -- -- 59
2019-08-04 00:00:00 26.7 15 Este 21 Este 0 -- -- 51
2019-08-03 23:00:00 27.9 9 Este 24 Este 0 -- -- 45
2019-08-03 22:00:00 29.3 16 Este 29 Sudeste 0 -- -- 42
2019-08-03 21:00:00 31.2 19 Este 32 Este 0 -- -- 37
2019-08-03 20:00:00 33.1 22 Este 30 Este 0 -- -- 33
2019-08-03 19:00:00 34.4 18 Este 28 Este 0 -- -- 29
2019-08-03 18:00:00 34.9 11 Sudeste 22 Este 0 -- -- 29
2019-08-03 17:00:00 34.7 9 Sudeste 25 Este 0 -- -- 29
2019-08-03 16:00:00 34.5 14 Este 24 Sudeste 0 -- -- 30
2019-08-03 15:00:00 33.3 11 Sudeste 21 Sudeste 0 -- -- 31
2019-08-03 14:00:00 32.4 12 Este 27 Este 0 -- -- 31
2019-08-03 13:00:00 30.5 15 Este 24 Este 0 -- -- 36
2019-08-03 12:00:00 29.1 12 Este 21 Este 0 -- -- 39
2019-08-03 11:00:00 27.1 12 Este 22 Este 0 -- -- 45
2019-08-03 10:00:00 25.3 13 Este 22 Este 0 -- -- 49
2019-08-03 09:00:00 21.3 8 Este 12 Nordeste 0 -- -- 62
2019-08-03 08:00:00 17.9 0 Calma 5 Este 0 -- -- 71
2019-08-03 07:00:00 17.7 3 Este 12 Nordeste 0 -- -- 69
2019-08-03 06:00:00 17.7 8 Nordeste 11 Nordeste 0 -- -- 68
2019-08-03 05:00:00 18.1 7 Nordeste 11 Este 0 -- -- 67
2019-08-03 04:00:00 18.9 5 Este 9 Noroeste 0 -- -- 64
2019-08-03 03:00:00 19.1 3 Nordeste 8 Noroeste 0 -- -- 62
2019-08-03 02:00:00 20 3 Este 6 Nordeste 0 -- -- 57
2019-08-03 01:00:00 20.8 0 Calma 12 Noroeste 0 -- -- 51
2019-08-03 00:00:00 22.7 3 Sudoeste 10 Noroeste 0 -- -- 44
2019-08-02 23:00:00 25.1 3 Noroeste 19 Noroeste 0 -- -- 39
2019-08-02 22:00:00 27.2 11 Noroeste 21 Noroeste 0 -- -- 32
2019-08-02 21:00:00 29.4 9 Noroeste 27 Noroeste 0 -- -- 27
2019-08-02 20:00:00 31.2 12 Noroeste 27 Oeste 0 -- -- 31
2019-08-02 19:00:00 31.6 15 Oeste 34 Oeste 0 -- -- 29
2019-08-02 18:00:00 31.7 19 Oeste 33 Oeste 0 -- -- 30
2019-08-02 17:00:00 31.7 17 Oeste 29 Oeste 0 -- -- 32
2019-08-02 16:00:00 30.7 14 Oeste 29 Oeste 0 -- -- 33
2019-08-02 15:00:00 28.6 21 Oeste 28 Oeste 0 -- -- 41
2019-08-02 14:00:00 26.9 19 Oeste 31 Oeste 0 -- -- 48
2019-08-02 13:00:00 25.2 19 Oeste 28 Oeste 0 -- -- 55
2019-08-02 12:00:00 22.8 18 Oeste 29 Oeste 0 -- -- 61
2019-08-02 11:00:00 21 18 Oeste 26 Oeste 0 -- -- 69
2019-08-02 10:00:00 18.9 16 Oeste 25 Oeste 0 -- -- 77
2019-08-02 09:00:00 17.3 11 Oeste 19 Oeste 0 -- -- 84
2019-08-02 08:00:00 16.1 6 Oeste 18 Oeste 0 -- -- 88
2019-08-02 07:00:00 15.7 7 Oeste 19 Oeste 0 -- -- 90
2019-08-02 06:00:00 16 9 Oeste 28 Oeste 0 -- -- 89
2019-08-02 05:00:00 16.6 15 Oeste 24 Oeste 0 -- -- 87
2019-08-02 04:00:00 17.2 19 Oeste 27 Oeste 0 -- -- 86
2019-08-02 03:00:00 17.2 20 Oeste 28 Oeste 0 -- -- 86
2019-08-02 02:00:00 17.9 16 Oeste 29 Oeste 0 -- -- 84
2019-08-02 01:00:00 18.4 13 Oeste 19 Oeste 0 -- -- 85
2019-08-02 00:00:00 19.3 14 Oeste 26 Oeste 0 -- -- 84
2019-08-01 23:00:00 21.6 12 Noroeste 23 Oeste 0 -- -- 74
2019-08-01 22:00:00 22.1 3 Este 11 Norte 0 -- -- 79
2019-08-01 21:00:00 23.6 6 Nordeste 13 Sudeste 0 -- -- 77
2019-08-01 20:00:00 25.7 6 Oeste 17 Oeste 0.2 -- -- 67
2019-08-01 19:00:00 28.3 4 Nordeste 16 Este 0.2 -- -- 46
2019-08-01 18:00:00 28.3 11 Noroeste 17 Noroeste 0 -- -- 49
2019-08-01 17:00:00 30.2 5 Este 18 Oeste 0 -- -- 38
2019-08-01 16:00:00 29.6 13 Oeste 27 Oeste 0 -- -- 45
2019-08-01 15:00:00 28.3 12 Oeste 23 Sudeste 0 -- -- 48
2019-08-01 14:00:00 28.9 10 Sur 21 Sudeste 0 -- -- 45
2019-08-01 13:00:00 27.4 11 Este 28 Este 0 -- -- 49
2019-08-01 12:00:00 25.1 6 Sudoeste 17 Sudoeste 0 -- -- 59
2019-08-01 11:00:00 22.3 8 Oeste 19 Oeste 0 -- -- 71
2019-08-01 10:00:00 21.5 9 Sudoeste 16 Oeste 0 -- -- 75
2019-08-01 09:00:00 20.9 3 Sudeste 10 Nordeste 0 -- -- 77
2019-08-01 08:00:00 18.7 3 Nordeste 12 Este 0 -- -- 86
2019-08-01 07:00:00 18.5 8 Este 27 Este 0 -- -- 84
2019-08-01 06:00:00 19.1 16 Este 37 Este 0 -- -- 83
2019-08-01 05:00:00 19.1 24 Este 33 Este 0 -- -- 86
2019-08-01 04:00:00 19.8 16 Este 35 Nordeste 0 -- -- 83
2019-08-01 03:00:00 20.8 24 Este 35 Este 0 -- -- 78
2019-08-01 02:00:00 21.3 23 Este 34 Este 0 -- -- 75
2019-08-01 01:00:00 23.3 20 Este 28 Este 0 -- -- 61
2019-08-01 00:00:00 23.8 15 Este 28 Este 0 -- -- 59
2019-07-31 23:00:00 24.2 17 Este 27 Este 0 -- -- 55
2019-07-31 22:00:00 25.1 19 Este 26 Este 0 -- -- 48
2019-07-31 21:00:00 26.6 20 Este 31 Este 0 -- -- 39
2019-07-31 20:00:00 28.6 14 Este 30 Este 0 -- -- 37
2019-07-31 19:00:00 29.8 14 Sudeste 29 Este 0 -- -- 33
2019-07-31 18:00:00 29.5 14 Este 30 Este 0 -- -- 34
2019-07-31 17:00:00 29.3 11 Sur 36 Este 0 -- -- 35
2019-07-31 16:00:00 28.8 11 Sudeste 24 Sudeste 0 -- -- 37
2019-07-31 15:00:00 27.6 8 Sudeste 24 Este 0 -- -- 36
2019-07-31 14:00:00 24.8 9 Sudoeste 21 Oeste 0 -- -- 39
2019-07-31 13:00:00 22.6 10 Oeste 21 Oeste 0 -- -- 45
2019-07-31 12:00:00 20.2 13 Oeste 18 Oeste 0 -- -- 49
2019-07-31 11:00:00 17.5 9 Oeste 18 Sudoeste 0 -- -- 58
2019-07-31 10:00:00 15.6 8 Oeste 18 Oeste 0 -- -- 65
2019-07-31 09:00:00 13.6 9 Oeste 16 Oeste 0 -- -- 75
2019-07-31 08:00:00 12 5 Oeste 13 Oeste 0 -- -- 82
2019-07-31 07:00:00 11.4 8 Oeste 17 Oeste 0 -- -- 84
2019-07-31 06:00:00 11.9 11 Oeste 26 Oeste 0 -- -- 82
2019-07-31 05:00:00 11.6 11 Oeste 19 Oeste 0 -- -- 84
2019-07-31 04:00:00 12.4 13 Oeste 24 Oeste 0 -- -- 81
2019-07-31 03:00:00 13 14 Oeste 26 Oeste 0 -- -- 78
2019-07-31 02:00:00 13.9 17 Oeste 34 Oeste 0 -- -- 72
2019-07-31 01:00:00 14.3 18 Oeste 28 Oeste 0 -- -- 65
2019-07-31 00:00:00 15.2 21 Oeste 36 Oeste 0 -- -- 62
2019-07-30 23:00:00 16 18 Oeste 32 Noroeste 0 -- -- 61
2019-07-30 22:00:00 17.2 20 Oeste 35 Oeste 0 -- -- 59
2019-07-30 21:00:00 19.5 18 Oeste 40 Noroeste 0 -- -- 51
2019-07-30 20:00:00 22.2 21 Oeste 44 Noroeste 0 -- -- 43
2019-07-30 19:00:00 23.4 24 Noroeste 47 Noroeste 0 -- -- 37
2019-07-30 18:00:00 23.9 26 Oeste 46 Oeste 0 -- -- 37
2019-07-30 17:00:00 24.1 25 Noroeste 49 Oeste 0 -- -- 37
2019-07-30 16:00:00 24.4 25 Oeste 48 Oeste 0 -- -- 38
2019-07-30 15:00:00 23.9 25 Oeste 46 Oeste 0 -- -- 39
2019-07-30 14:00:00 23 26 Oeste 45 Oeste 0 -- -- 42
2019-07-30 13:00:00 21.8 30 Oeste 48 Oeste 0 -- -- 45
2019-07-30 12:00:00 20.9 26 Oeste 47 Oeste 0 -- -- 51
2019-07-30 11:00:00 19.4 26 Oeste 46 Oeste 0 -- -- 56
2019-07-30 10:00:00 17.5 28 Oeste 42 Oeste 0 -- -- 62
2019-07-30 09:00:00 15.9 24 Oeste 34 Oeste 0 -- -- 70
2019-07-30 08:00:00 14.3 19 Oeste 29 Oeste 0 -- -- 77
2019-07-30 07:00:00 14.1 18 Oeste 28 Oeste 0 -- -- 81
2019-07-30 06:00:00 14.3 18 Oeste 30 Oeste 0 -- -- 79
2019-07-30 05:00:00 14.8 20 Oeste 33 Oeste 0 -- -- 79
2019-07-30 04:00:00 15.5 18 Oeste 30 Oeste 0 -- -- 78
2019-07-30 03:00:00 16 18 Oeste 30 Oeste 0 -- -- 77
2019-07-30 02:00:00 16.5 20 Oeste 29 Oeste 0 -- -- 75
2019-07-30 01:00:00 17.8 17 Oeste 35 Oeste 0 -- -- 72
2019-07-30 00:00:00 19 22 Oeste 37 Oeste 0 -- -- 68
2019-07-29 23:00:00 -- 21 Oeste 32 Sudoeste 0 -- -- --
2019-07-29 22:00:00 25.5 16 Oeste 30 Sudoeste 0 -- -- 50
2019-07-29 21:00:00 29.9 0 Calma 22 Este 0 -- -- 27
2019-07-29 20:00:00 31.1 19 Este 29 Este 0 -- -- 26
2019-07-29 19:00:00 32.2 10 Este 21 Este 0 -- -- 25
2019-07-29 18:00:00 32.4 12 Oeste 26 Oeste 0 -- -- 24
2019-07-29 17:00:00 32.5 11 Oeste 27 Noroeste 0 -- -- 24
2019-07-29 16:00:00 31.8 11 Noroeste 19 Noroeste 0 -- -- 25
2019-07-29 15:00:00 30.7 10 Oeste 21 Noroeste 0 -- -- 25
2019-07-29 14:00:00 29.5 7 Oeste 24 Oeste 0 -- -- 27
2019-07-29 13:00:00 28.2 5 Oeste 20 Sudoeste 0 -- -- 33
2019-07-29 12:00:00 25.7 9 Oeste 16 Oeste 0 -- -- 38
2019-07-29 11:00:00 23.9 12 Oeste 20 Oeste 0 -- -- 41
2019-07-29 10:00:00 23.2 4 Sudoeste 8 Sudoeste 0 -- -- 40
2019-07-29 09:00:00 -- -- -- -- -- -- -- -- --
2019-07-29 08:00:00 -- -- -- -- -- -- -- -- --
2019-07-29 07:00:00 -- -- -- -- -- -- -- -- --
2019-07-29 06:00:00 -- -- -- -- -- -- -- -- --
2019-07-29 05:00:00 -- -- -- -- -- -- -- -- --
2019-07-29 04:00:00 -- -- -- -- -- -- -- -- --
2019-07-29 03:00:00 -- -- -- -- -- -- -- -- --
2019-07-29 02:00:00 -- -- -- -- -- -- -- -- --
2019-07-29 01:00:00 -- -- -- -- -- -- -- -- --
2019-07-29 00:00:00 -- -- -- -- -- -- -- -- --
2019-07-28 23:00:00 -- -- -- -- -- -- -- -- --
2019-07-28 22:00:00 -- -- -- -- -- -- -- -- --
2019-07-28 21:00:00 -- -- -- -- -- -- -- -- --
2019-07-28 20:00:00 -- -- -- -- -- -- -- -- --
2019-07-28 19:00:00 -- -- -- -- -- -- -- -- --
2019-07-28 18:00:00 -- -- -- -- -- -- -- -- --
2019-07-28 17:00:00 -- -- -- -- -- -- -- -- --
2019-07-28 16:00:00 -- -- -- -- -- -- -- -- --
2019-07-28 15:00:00 -- -- -- -- -- -- -- -- --
2019-07-28 14:00:00 -- -- -- -- -- -- -- -- --
2019-07-28 13:00:00 -- -- -- -- -- -- -- -- --
2019-07-28 12:00:00 -- -- -- -- -- -- -- -- --
2019-07-28 11:00:00 -- -- -- -- -- -- -- -- --
2019-07-28 10:00:00 -- -- -- -- -- -- -- -- --
2019-07-28 09:00:00 -- -- -- -- -- -- -- -- --
2019-07-28 08:00:00 -- -- -- -- -- -- -- -- --
2019-07-28 07:00:00 -- -- -- -- -- -- -- -- --
2019-07-28 06:00:00 -- -- -- -- -- -- -- -- --
2019-07-28 05:00:00 -- -- -- -- -- -- -- -- --
2019-07-28 04:00:00 -- -- -- -- -- -- -- -- --
2019-07-28 03:00:00 -- -- -- -- -- -- -- -- --
2019-07-28 02:00:00 -- -- -- -- -- -- -- -- --
2019-07-28 01:00:00 -- -- -- -- -- -- -- -- --
2019-07-28 00:00:00 -- -- -- -- -- -- -- -- --
2019-07-27 23:00:00 -- -- -- -- -- -- -- -- --
2019-07-26 12:00:00 -- -- -- -- -- -- -- -- --
2019-07-26 11:00:00 21.5 13 Oeste 28 Oeste 0 -- -- 77
2019-07-26 10:00:00 21.5 15 Este 20 Nordeste 0 -- -- 71
2019-07-26 09:00:00 20.5 9 Oeste 12 Oeste 0 -- -- 83
2019-07-26 08:00:00 19.9 0 Calma 18 Oeste 0 -- -- 84
2019-07-26 07:00:00 20 9 Oeste 14 Este 0 -- -- 84
2019-07-26 06:00:00 20.9 8 Noroeste 20 Oeste 0 -- -- 77
2019-07-26 05:00:00 21.7 12 Oeste 18 Oeste 0 -- -- 73
2019-07-26 04:00:00 22.9 2 Sudeste 18 Oeste 0 -- -- 61
2019-07-26 03:00:00 23.8 8 Sudoeste 38 Este 0 -- -- 59
2019-07-26 02:00:00 24.5 28 Este 41 Este 0 -- -- 59
2019-07-26 01:00:00 25.7 31 Este 41 Este 0 -- -- 56
2019-07-26 00:00:00 27.6 28 Este 39 Este 0 -- -- 38
2019-07-25 23:00:00 28.4 20 Este 30 Este 0 -- -- 33
2019-07-25 22:00:00 29.7 5 Sur 26 Sudeste 0 -- -- 29
2019-07-25 21:00:00 30.9 14 Sudeste 29 Sudeste 0 -- -- 28
2019-07-25 20:00:00 31.6 15 Este 30 Sudeste 0 -- -- 31
2019-07-25 19:00:00 33.4 8 Oeste 34 Sudeste 0 -- -- 25
2019-07-25 18:00:00 35.5 19 Sur 37 Sudeste 0 -- -- 24
2019-07-25 17:00:00 36.6 23 Este 45 Este 0 -- -- 25
2019-07-25 16:00:00 36.7 22 Este 36 Este 0 -- -- 24
2019-07-25 15:00:00 35.9 30 Este 45 Este 0 -- -- 24
2019-07-25 14:00:00 35.1 15 Sudeste 32 Este 0 -- -- 28
2019-07-25 13:00:00 33.2 17 Este 37 Este 0 -- -- 32
2019-07-25 12:00:00 30.7 25 Este 37 Este 0 -- -- 36
2019-07-25 11:00:00 28.8 30 Este 38 Este 0 -- -- 38
2019-07-25 10:00:00 27 26 Este 39 Este 0 -- -- 43
2019-07-25 09:00:00 25 21 Este 28 Este 0 -- -- 49
2019-07-25 08:00:00 23.6 19 Este 26 Este 0 -- -- 52
2019-07-25 07:00:00 22.8 16 Este 28 Este 0 -- -- 53
2019-07-25 06:00:00 23.5 14 Este 35 Este 0 -- -- 53
2019-07-25 05:00:00 24 28 Este 37 Este 0 -- -- 53
2019-07-25 04:00:00 24.2 24 Este 38 Este 0 -- -- 56
2019-07-25 03:00:00 25 24 Este 41 Este 0 -- -- 55
2019-07-25 02:00:00 25.6 28 Este 40 Este 0 -- -- 54
2019-07-25 01:00:00 26.7 23 Este 36 Este 0 -- -- 48
2019-07-25 00:00:00 29.2 26 Este 34 Este 0 -- -- 36
2019-07-24 23:00:00 30.7 21 Este 32 Sudeste 0 -- -- 30
2019-07-24 22:00:00 31.5 18 Este 37 Este 0 -- -- 32
2019-07-24 21:00:00 33.3 27 Este 39 Este 0 -- -- 30
2019-07-24 20:00:00 35.5 17 Este 28 Este 0 -- -- 24
2019-07-24 19:00:00 35.5 12 Este 41 Este 0 -- -- 24
2019-07-24 18:00:00 37 26 Este 41 Este 0 -- -- 22
2019-07-24 17:00:00 37.6 10 Sur 29 Este 0 -- -- 19
2019-07-24 16:00:00 37.2 9 Sudeste 24 Sudeste 0 -- -- 20
2019-07-24 15:00:00 36.3 10 Sudeste 24 Sudeste 0 -- -- 21
2019-07-24 14:00:00 36.4 11 Sur 24 Sudeste 0 -- -- 22
2019-07-24 13:00:00 35.1 9 Sudeste 21 Este 0 -- -- 25
2019-07-24 12:00:00 32.3 5 Oeste 18 Oeste 0 -- -- 31
2019-07-24 11:00:00 29.6 9 Oeste 14 Noroeste 0 -- -- 37
2019-07-24 10:00:00 27.1 5 Oeste 18 Oeste 0 -- -- 43
2019-07-24 09:00:00 26.3 6 Sudeste 18 Este 0 -- -- 39
2019-07-24 08:00:00 24.3 14 Este 22 Este 0 -- -- 44
2019-07-24 07:00:00 23.7 14 Este 21 Este 0 -- -- 42
2019-07-24 06:00:00 24.4 12 Este 19 Nordeste 0 -- -- 40
2019-07-24 05:00:00 24.4 12 Nordeste 19 Este 0 -- -- 41
2019-07-24 04:00:00 24.8 14 Este 19 Nordeste 0 -- -- 42
2019-07-24 03:00:00 25.2 10 Nordeste 14 Nordeste 0 -- -- 45
2019-07-24 02:00:00 26.9 8 Oeste 19 Oeste 0 -- -- 42
2019-07-24 01:00:00 27.7 18 Oeste 27 Oeste 0 -- -- 41
2019-07-24 00:00:00 29.7 18 Este 27 Este 0 -- -- 33
2019-07-23 23:00:00 30.5 10 Este 15 Este 0 -- -- 32
2019-07-23 22:00:00 32.4 7 Este 17 Este 0 -- -- 28
2019-07-23 21:00:00 33.7 17 Este 45 Este 0 -- -- 28
2019-07-23 20:00:00 35.5 29 Este 45 Este 0 -- -- 25
2019-07-23 19:00:00 36.9 27 Este 44 Este 0 -- -- 21
2019-07-23 18:00:00 38.2 11 Sudeste 30 Sudeste 0 -- -- 19
2019-07-23 17:00:00 38.2 13 Sudeste 27 Este 0 -- -- 19
2019-07-23 16:00:00 37.4 14 Este 29 Sudeste 0 -- -- 19
2019-07-23 15:00:00 37.1 13 Sudeste 25 Sudeste 0 -- -- 19
2019-07-23 14:00:00 36.8 14 Este 30 Este 0 -- -- 20
2019-07-23 13:00:00 35.6 12 Este 27 Este 0 -- -- 21
2019-07-23 12:00:00 34.7 10 Sudeste 23 Este 0 -- -- 23
2019-07-23 11:00:00 32.2 16 Este 27 Este 0 -- -- 25
2019-07-23 10:00:00 30 18 Este 28 Este 0 -- -- 29
2019-07-23 09:00:00 27.1 14 Este 26 Este 0 -- -- 34
2019-07-23 08:00:00 25.2 17 Este 25 Este 0 -- -- 37
2019-07-23 07:00:00 23.8 18 Este 23 Este 0 -- -- 39
2019-07-23 06:00:00 24.5 20 Este 30 Este 0 -- -- 38
2019-07-23 05:00:00 24.5 23 Este 36 Este 0 -- -- 39
2019-07-23 04:00:00 23.8 27 Este 35 Este 0 -- -- 45
2019-07-23 03:00:00 24.1 27 Este 38 Este 0 -- -- 44
2019-07-23 02:00:00 24.5 23 Este 35 Este 0 -- -- 46
2019-07-23 01:00:00 26.2 27 Este 36 Este 0 -- -- 42
2019-07-23 00:00:00 27.4 24 Este 32 Este 0 -- -- 39
2019-07-22 23:00:00 28.8 23 Este 39 Este 0 -- -- 36
2019-07-22 22:00:00 31 31 Este 46 Este 0 -- -- 33
2019-07-22 21:00:00 32.9 32 Este 48 Este 0 -- -- 29
2019-07-22 20:00:00 34.7 35 Este 50 Nordeste 0 -- -- 26
2019-07-22 19:00:00 36.4 24 Este 41 Este 0 -- -- 22
2019-07-22 18:00:00 37.3 13 Sudeste 33 Sudeste 0 -- -- 20
2019-07-22 17:00:00 37.3 16 Sudeste 32 Este 0 -- -- 19
2019-07-22 16:00:00 36.6 16 Sudeste 31 Sudeste 0 -- -- 21
2019-07-22 15:00:00 36.1 12 Este 28 Este 0 -- -- 26
2019-07-22 14:00:00 35.1 17 Sudeste 33 Este 0 -- -- 26
2019-07-22 13:00:00 33.5 10 Sudeste 21 Sudeste 0 -- -- 28
2019-07-22 12:00:00 32.2 10 Este 23 Este 0 -- -- 31
2019-07-22 11:00:00 30.4 10 Este 17 Este 0 -- -- 33
2019-07-22 10:00:00 28 9 Este 27 Este 0 -- -- 38
2019-07-22 09:00:00 25.3 16 Este 25 Este 0 -- -- 45
2019-07-22 08:00:00 22.9 15 Este 21 Este 0 -- -- 50
2019-07-22 07:00:00 21.7 14 Este 18 Este 0 -- -- 55
2019-07-22 06:00:00 22.2 9 Este 14 Este 0 -- -- 54
2019-07-22 05:00:00 22.9 5 Este 19 Este 0 -- -- 50
2019-07-22 04:00:00 23.9 17 Este 41 Este 0 -- -- 48
2019-07-22 03:00:00 24.6 24 Este 37 Este 0 -- -- 46
2019-07-22 02:00:00 24.8 17 Este 27 Este 0 -- -- 45
2019-07-22 01:00:00 25.4 17 Nordeste 24 Nordeste 0 -- -- 43
2019-07-22 00:00:00 26.8 12 Nordeste 36 Este 0 -- -- 39
2019-07-21 23:00:00 27.9 27 Este 38 Este 0 -- -- 37
2019-07-21 22:00:00 29.6 27 Este 41 Este 0 -- -- 35
2019-07-21 21:00:00 31.2 28 Este 40 Este 0 -- -- 36
2019-07-21 20:00:00 32.9 26 Este 40 Este 0 -- -- 35
2019-07-21 19:00:00 33.8 29 Este 40 Este 0 -- -- 35
2019-07-21 18:00:00 34.4 25 Este 38 Este 0 -- -- 33
2019-07-21 17:00:00 34.4 17 Este 37 Este 0 -- -- 35
2019-07-21 16:00:00 33.8 14 Sudeste 34 Sudeste 0 -- -- 36
2019-07-21 15:00:00 32.9 21 Este 35 Este 0 -- -- 40
2019-07-21 14:00:00 31.8 15 Este 28 Este 0 -- -- 40
2019-07-21 13:00:00 30.4 13 Este 26 Este 0 -- -- 42
2019-07-21 12:00:00 28.5 17 Este 27 Este 0 -- -- 47
2019-07-21 11:00:00 26.6 11 Sudeste 27 Este 0 -- -- 52
2019-07-21 10:00:00 25.3 13 Este 24 Sudeste 0 -- -- 56
2019-07-21 09:00:00 21.3 3 Este 6 Nordeste 0 -- -- 69
2019-07-21 08:00:00 18 2 Nordeste 10 Nordeste 0 -- -- 81
2019-07-21 07:00:00 17.2 5 Nordeste 8 Nordeste 0 -- -- 83
2019-07-21 06:00:00 17.8 5 Este 8 Este 0 -- -- 81
2019-07-21 05:00:00 18.8 0 Calma 12 Oeste 0 -- -- 80
2019-07-21 04:00:00 19.2 6 Noroeste 21 Oeste 0 -- -- 81
2019-07-21 03:00:00 21.1 13 Oeste 33 Este 0 -- -- 71
2019-07-21 02:00:00 23.4 26 Este 40 Este 0 -- -- 52
2019-07-21 01:00:00 23.7 24 Este 36 Este 0 -- -- 55
2019-07-21 00:00:00 24.7 23 Este 31 Este 0 -- -- 58
2019-07-20 23:00:00 26.4 23 Este 41 Este 0 -- -- 56
2019-07-20 22:00:00 29.3 26 Este 41 Este 0 -- -- 46
2019-07-20 21:00:00 31 28 Este 40 Este 0 -- -- 43
2019-07-20 20:00:00 32.6 28 Este 37 Este 0 -- -- 34
2019-07-20 19:00:00 33.7 26 Este 37 Este 0 -- -- 33
2019-07-20 18:00:00 34 25 Este 38 Este 0 -- -- 33
2019-07-20 17:00:00 34.4 21 Este 33 Este 0 -- -- 33
2019-07-20 16:00:00 34.3 13 Este 29 Este 0 -- -- 34
2019-07-20 15:00:00 33 15 Este 31 Este 0 -- -- 37
2019-07-20 14:00:00 31.2 17 Este 36 Este 0 -- -- 42
2019-07-20 13:00:00 29.5 25 Este 35 Este 0 -- -- 47
2019-07-20 12:00:00 28 22 Este 31 Este 0 -- -- 53
2019-07-20 11:00:00 26.3 22 Este 37 Este 0 -- -- 59
2019-07-20 10:00:00 23.7 24 Este 37 Este 0 -- -- 68
2019-07-20 09:00:00 22 24 Este 40 Este 0 -- -- 73
2019-07-20 08:00:00 20.6 22 Este 32 Este 0 -- -- 77
2019-07-20 07:00:00 20 24 Este 31 Este 0 -- -- 75
2019-07-20 06:00:00 20.2 19 Este 31 Este 0 -- -- 71
2019-07-20 05:00:00 21 26 Este 38 Este 0 -- -- 67
2019-07-20 04:00:00 21.4 26 Este 51 Este 0 -- -- 66
2019-07-20 03:00:00 21.9 31 Este 50 Este 0 -- -- 64
2019-07-20 02:00:00 22.4 31 Este 52 Este 0 -- -- 59
2019-07-20 01:00:00 23.2 41 Este 54 Este 0 -- -- 57
2019-07-20 00:00:00 25.5 32 Este 44 Este 0 -- -- 52
2019-07-19 23:00:00 26.8 27 Este 39 Este 0 -- -- 50
2019-07-19 22:00:00 27.6 29 Este 43 Este 0 -- -- 48
2019-07-19 21:00:00 29 30 Este 41 Este 0 -- -- 44
2019-07-19 20:00:00 30.5 32 Este 44 Este 0 -- -- 36
2019-07-19 19:00:00 32 32 Este 44 Este 0 -- -- 33
2019-07-19 18:00:00 33 19 Este 37 Este 0 -- -- 33
2019-07-19 17:00:00 32.8 18 Este 33 Este 0 -- -- 33
2019-07-19 16:00:00 32.2 17 Este 30 Sudeste 0 -- -- 33
2019-07-19 15:00:00 31.2 12 Sudeste 23 Este 0 -- -- 32
2019-07-19 14:00:00 -- 8 Sudeste 21 Este 0 -- -- --
2019-07-19 13:00:00 28.8 12 Este 21 Sudeste 0 -- -- 41
2019-07-19 12:00:00 26.8 12 Este 22 Este 0 -- -- 49
2019-07-19 11:00:00 23.5 7 Sudoeste 17 Noroeste 0 -- -- 55
2019-07-19 10:00:00 20 7 Oeste 10 Oeste 0 -- -- 55
2019-07-19 09:00:00 17 4 Oeste 6 Noroeste 0 -- -- 65
2019-07-19 08:00:00 14.8 6 Este 12 Este 0 -- -- 72
2019-07-19 07:00:00 14.6 6 Nordeste 11 Nordeste 0 -- -- 70
2019-07-19 06:00:00 15.3 4 Oeste 11 Oeste 0 -- -- 67
2019-07-19 05:00:00 15.2 9 Oeste 18 Noroeste 0 -- -- 67
2019-07-19 04:00:00 15.6 13 Oeste 20 Oeste 0 -- -- 66
2019-07-19 03:00:00 16 11 Sudoeste 20 Sudoeste 0 -- -- 71
2019-07-19 02:00:00 17.3 13 Oeste 23 Oeste 0 -- -- 68
2019-07-19 01:00:00 17.9 12 Oeste 26 Sur 0 -- -- 68
2019-07-19 00:00:00 19.2 13 Sudoeste 24 Noroeste 0 -- -- 65
2019-07-18 23:00:00 22.1 15 Noroeste 29 Noroeste 0 -- -- 52
2019-07-18 22:00:00 23.1 14 Oeste 28 Oeste 0 -- -- 51
2019-07-18 21:00:00 25.4 19 Oeste 35 Oeste 0 -- -- 45
2019-07-18 20:00:00 27.8 24 Oeste 35 Oeste 0 -- -- 31
2019-07-18 19:00:00 28.7 24 Oeste 35 Oeste 0 -- -- 31
2019-07-18 18:00:00 29 22 Oeste 35 Oeste 0 -- -- 28
2019-07-18 17:00:00 28.4 18 Noroeste 36 Oeste 0 -- -- 35
2019-07-18 16:00:00 27.1 22 Oeste 40 Oeste 0 -- -- 35
2019-07-18 15:00:00 26 27 Oeste 44 Oeste 0 -- -- 41
2019-07-18 14:00:00 24.3 27 Oeste 40 Oeste 0 -- -- 46
2019-07-18 13:00:00 23.2 22 Oeste 39 Oeste 0 -- -- 51
2019-07-18 12:00:00 21.9 23 Oeste 42 Oeste 0 -- -- 54
2019-07-18 11:00:00 19.8 23 Oeste 37 Oeste 0 -- -- 62
2019-07-18 10:00:00 18.4 23 Oeste 33 Oeste 0 -- -- 69
2019-07-18 09:00:00 16.7 18 Oeste 30 Oeste 0 -- -- 75
2019-07-18 08:00:00 15.4 15 Oeste 27 Oeste 0 -- -- 81
2019-07-18 07:00:00 15.2 12 Oeste 31 Noroeste 0 -- -- 81
2019-07-18 06:00:00 15.7 17 Oeste 30 Oeste 0 -- -- 82
2019-07-18 05:00:00 15.9 18 Oeste 31 Noroeste 0 -- -- 83
2019-07-18 04:00:00 16.4 19 Oeste 31 Oeste 0 -- -- 83
2019-07-18 03:00:00 16.9 15 Oeste 28 Noroeste 0 -- -- 82
2019-07-18 02:00:00 17.2 20 Oeste 32 Noroeste 0 -- -- 81
2019-07-18 01:00:00 18 17 Oeste 26 Oeste 0 -- -- 79
2019-07-18 00:00:00 -- 14 Oeste 26 Oeste 0 -- -- --